Time;durP1;ratioP1;P1;durP2;ratioP2;P2;SDS_P1;SDS_P2;PMS_P1;PMS_P2;Temp;Humidity;BMP_temperature;BMP_pressure;BME280_temperature;BME280_humidity;BME280_pressure;Samples;Min_cycle;Max_cycle;Signal;HPM_P1;HPM_P2
2022/11/02 00:02:17;;;;;;;1.55;0.22;;;19.30;45.30;;;;;;5028948;28;20033;-59
2022/11/02 00:04:44;;;;;;;2.83;0.20;;;19.00;44.00;;;;;;5027166;28;20032;-59
2022/11/02 00:07:11;;;;;;;0.10;0.10;;;19.10;44.70;;;;;;5022883;28;20030;-59
2022/11/02 00:09:39;;;;;;;0.45;0.15;;;19.60;44.80;;;;;;5032008;28;20020;-59
2022/11/02 00:12:06;;;;;;;5.78;0.50;;;19.90;44.30;;;;;;5029480;28;20124;-58
2022/11/02 00:14:33;;;;;;;5.70;0.57;;;20.00;40.00;;;;;;5042182;28;20595;-59
2022/11/02 00:17:01;;;;;;;3.70;0.30;;;20.20;42.10;;;;;;5036217;28;20032;-59
2022/11/02 00:19:29;;;;;;;1.70;0.20;;;20.30;42.00;;;;;;5047118;28;20021;-58
2022/11/02 00:21:58;;;;;;;0.70;0.20;;;20.00;41.40;;;;;;5033431;28;20072;-58
2022/11/02 00:24:25;;;;;;;6.55;0.35;;;19.90;41.90;;;;;;5029448;28;20124;-58
2022/11/02 00:26:54;;;;;;;2.90;0.38;;;19.90;42.10;;;;;;5033732;28;20025;-59
2022/11/02 00:29:23;;;;;;;6.45;0.70;;;19.80;41.10;;;;;;5032286;28;20519;-59
2022/11/02 00:31:50;;;;;;;4.85;0.50;;;19.70;42.30;;;;;;5031057;28;20021;-59
2022/11/02 00:34:17;;;;;;;7.30;0.65;;;19.70;41.60;;;;;;5037338;28;20083;-58
2022/11/02 00:36:45;;;;;;;7.40;0.55;;;19.70;42.30;;;;;;5031570;28;20080;-58
2022/11/02 00:39:12;;;;;;;2.22;0.40;;;19.80;42.70;;;;;;5032681;28;20104;-59
2022/11/02 00:41:39;;;;;;;1.88;0.30;;;19.80;41.10;;;;;;5031672;28;20362;-60
2022/11/02 00:44:06;;;;;;;5.50;0.73;;;20.10;41.50;;;;;;5031804;28;20104;-60
2022/11/02 00:46:33;;;;;;;3.78;0.43;;;20.20;41.50;;;;;;5029672;28;20044;-59
2022/11/02 00:49:00;;;;;;;1.73;0.38;;;20.10;42.40;;;;;;5039112;28;20377;-56
2022/11/02 00:51:30;;;;;;;3.95;0.30;;;20.00;40.10;;;;;;5030890;28;20030;-58
2022/11/02 00:53:58;;;;;;;0.32;0.28;;;19.90;40.80;;;;;;5041614;28;20030;-60
2022/11/02 00:56:25;;;;;;;2.05;0.30;;;19.80;42.20;;;;;;5033143;28;20029;-59
2022/11/02 00:58:52;;;;;;;12.27;0.82;;;19.90;43.10;;;;;;5033710;28;20354;-60
2022/11/02 01:01:19;;;;;;;1.67;0.20;;;20.10;43.20;;;;;;5036254;28;20048;-63
2022/11/02 01:03:46;;;;;;;0.38;0.20;;;20.30;43.10;;;;;;5030932;28;20092;-60
2022/11/02 01:06:15;;;;;;;5.88;0.75;;;20.60;44.00;;;;;;5029874;28;20040;-60
2022/11/02 01:08:42;;;;;;;2.33;0.38;;;21.10;43.20;;;;;;5029818;28;20025;-58
2022/11/02 01:11:21;;;;;;;3.00;0.35;;;20.90;41.20;;;;;;5026454;28;20050;-59
2022/11/02 01:13:51;;;;;;;0.65;0.30;;;20.70;39.70;;;;;;5040507;28;20438;-62
2022/11/02 01:16:19;;;;;;;4.22;0.43;;;20.90;41.90;;;;;;5033315;28;20018;-55
2022/11/02 01:18:46;;;;;;;2.10;0.47;;;21.10;40.90;;;;;;5030288;28;20025;-54
2022/11/02 01:21:14;;;;;;;6.15;0.63;;;21.20;42.50;;;;;;5030935;28;20040;-56
2022/11/02 01:23:41;;;;;;;4.13;0.50;;;21.00;39.40;;;;;;5028177;28;20436;-54
2022/11/02 01:26:09;;;;;;;2.53;0.50;;;20.90;40.50;;;;;;5031095;28;20021;-54
2022/11/02 01:28:38;;;;;;;4.03;0.38;;;20.60;40.00;;;;;;5045970;28;20481;-54
2022/11/02 01:31:07;;;;;;;1.75;0.30;;;20.50;40.10;;;;;;5022309;28;20362;-56
2022/11/02 01:33:34;;;;;;;1.55;0.17;;;20.50;41.30;;;;;;5029307;28;20033;-55
2022/11/02 01:36:06;;;;;;;0.73;0.22;;;20.80;41.90;;;;;;5029143;28;20419;-56
2022/11/02 01:38:33;;;;;;;2.30;0.30;;;20.60;40.40;;;;;;5024803;28;20033;-54
2022/11/02 01:41:00;;;;;;;1.10;0.20;;;20.60;41.50;;;;;;5026715;28;20060;-57
2022/11/02 01:43:36;;;;;;;0.10;0.10;;;20.80;43.40;;;;;;5026676;28;20025;-64
2022/11/02 01:46:12;;;;;;;0.10;0.10;;;20.80;40.10;;;;;;5024758;28;20087;-58
2022/11/02 01:48:45;;;;;;;0.20;0.20;;;20.60;40.80;;;;;;5028748;28;20488;-57
2022/11/02 01:51:36;;;;;;;0.10;0.10;;;20.70;42.10;;;;;;5027175;28;20076;-60
2022/11/02 01:54:09;;;;;;;4.15;0.40;;;20.70;41.10;;;;;;5024668;28;20036;-55
2022/11/02 01:56:37;;;;;;;1.23;0.40;;;20.80;42.70;;;;;;5027250;28;20028;-58
2022/11/02 01:59:10;;;;;;;13.70;1.60;;;21.20;43.60;;;;;;5028164;28;20021;-56
2022/11/02 02:01:37;;;;;;;4.78;0.88;;;20.90;41.10;;;;;;5024845;28;20033;-57
2022/11/02 02:04:05;;;;;;;4.30;0.35;;;20.80;40.70;;;;;;5027961;28;20029;-57
2022/11/02 02:06:33;;;;;;;1.77;0.20;;;20.80;41.20;;;;;;5027416;28;20034;-55
2022/11/02 02:09:04;;;;;;;1.85;0.43;;;21.10;41.20;;;;;;5033988;28;20021;-55
2022/11/02 02:11:39;;;;;;;8.77;0.60;;;21.00;41.20;;;;;;5028680;28;20032;-55
2022/11/02 02:14:17;;;;;;;8.88;0.73;;;21.20;41.70;;;;;;5030134;28;20026;-56
2022/11/02 02:17:21;;;;;;;3.08;0.65;;;21.30;39.60;;;;;;5031837;28;20041;-54
2022/11/02 02:20:00;;;;;;;3.65;0.45;;;21.10;41.60;;;;;;5032474;28;20082;-53
2022/11/02 02:22:58;;;;;;;3.53;0.45;;;21.30;42.00;;;;;;5028928;28;20033;-56
2022/11/02 02:25:38;;;;;;;0.43;0.20;;;21.60;42.80;;;;;;5019491;28;20024;-57
2022/11/02 02:28:20;;;;;;;2.40;0.32;;;21.40;42.50;;;;;;5035899;28;20029;-57
2022/11/02 02:30:58;;;;;;;1.88;0.50;;;21.50;38.40;;;;;;5045827;28;20025;-59
2022/11/02 02:33:33;;;;;;;1.10;0.40;;;21.00;40.70;;;;;;5032439;28;20390;-54
2022/11/02 02:36:18;;;;;;;1.33;0.28;;;20.10;40.80;;;;;;5039876;28;20423;-58
2022/11/02 02:38:52;;;;;;;4.00;0.95;;;20.00;43.40;;;;;;5034181;28;20064;-59
2022/11/02 02:41:34;;;;;;;1.35;0.38;;;20.50;43.20;;;;;;5043200;28;20100;-59
2022/11/02 02:44:04;;;;;;;3.08;0.55;;;20.80;40.80;;;;;;5029518;28;20387;-58
2022/11/02 02:46:49;;;;;;;21.67;1.23;;;20.60;41.60;;;;;;5027179;28;20030;-59
2022/11/02 02:49:18;;;;;;;;;;;20.80;42.60;;;;;;5027205;28;20022;-58
2022/11/02 02:51:46;;;;;;;4.05;0.35;;;21.20;42.30;;;;;;5042844;28;20043;-61
2022/11/02 02:54:34;;;;;;;5.38;0.30;;;21.20;44.30;;;;;;5030807;28;20034;-59
2022/11/02 02:57:07;;;;;;;8.45;0.65;;;21.30;42.30;;;;;;5040753;28;20021;-58
2022/11/02 02:59:48;;;;;;;6.03;0.70;;;21.10;42.00;;;;;;5034715;28;20038;-60
2022/11/02 03:02:27;;;;;;;3.70;0.38;;;21.30;42.50;;;;;;5031316;28;20025;-58
2022/11/02 03:04:54;;;;;;;4.20;0.38;;;21.60;41.60;;;;;;5035479;28;20325;-58
2022/11/02 03:07:31;;;;;;;2.13;0.20;;;21.40;40.20;;;;;;5044518;28;20024;-58
2022/11/02 03:10:19;;;;;;;0.22;0.20;;;21.10;40.60;;;;;;5042644;28;20029;-59
2022/11/02 03:13:24;;;;;;;4.35;0.77;;;21.00;43.50;;;;;;5037670;28;20469;-59
2022/11/02 03:15:58;;;;;;;;;;;21.10;42.50;;;;;;5032634;28;20390;-61
2022/11/02 03:18:37;;;;;;;1.75;0.30;;;21.20;41.50;;;;;;5040850;28;20369;-57
2022/11/02 03:21:20;;;;;;;12.82;1.23;;;21.30;43.00;;;;;;5031922;28;20047;-56
2022/11/02 03:23:59;;;;;;;0.85;0.30;;;21.20;44.00;;;;;;5040874;28;20044;-56
2022/11/02 03:26:59;;;;;;;2.88;0.35;;;21.50;42.90;;;;;;5035095;28;20021;-57
2022/11/02 03:29:58;;;;;;;16.38;0.73;;;21.60;41.50;;;;;;5029924;28;20037;-54
2022/11/02 03:32:36;;;;;;;4.05;0.68;;;21.60;38.20;;;;;;5038416;28;20029;-54
2022/11/02 03:35:11;;;;;;;3.10;0.38;;;21.10;38.00;;;;;;5037627;28;20018;-57
2022/11/02 03:37:46;;;;;;;7.63;0.45;;;20.80;40.70;;;;;;5037540;28;20024;-58
2022/11/02 03:40:23;;;;;;;5.07;0.50;;;20.60;41.10;;;;;;5031717;28;20047;-58
2022/11/02 03:42:53;;;;;;;5.63;0.40;;;20.70;42.30;;;;;;5041984;28;20029;-57
2022/11/02 03:45:27;;;;;;;2.67;0.40;;;20.90;41.20;;;;;;5037555;28;20017;-57
2022/11/02 03:48:00;;;;;;;1.90;0.28;;;21.00;41.40;;;;;;5045698;28;20091;-59
2022/11/02 03:50:28;;;;;;;9.70;0.60;;;21.30;42.30;;;;;;5043765;28;20034;-57
2022/11/02 03:53:20;;;;;;;6.72;0.90;;;21.40;42.60;;;;;;5032757;28;20087;-59
2022/11/02 03:55:52;;;;;;;3.30;0.20;;;21.40;42.50;;;;;;5041624;28;20066;-59
2022/11/02 03:58:19;;;;;;;2.55;1.27;;;21.50;41.50;;;;;;5037772;28;20026;-59
2022/11/02 04:00:57;;;;;;;13.48;2.25;;;21.40;41.50;;;;;;5033025;28;20033;-59
2022/11/02 04:03:25;;;;;;;8.90;0.65;;;21.50;41.20;;;;;;5043588;28;20053;-59
2022/11/02 04:05:52;;;;;;;9.18;1.25;;;21.60;42.40;;;;;;5034595;28;20028;-59
2022/11/02 04:08:28;;;;;;;9.60;0.70;;;21.70;38.10;;;;;;5037110;28;20108;-57
2022/11/02 04:16:25;;;;;;;0.28;0.20;;;20.90;42.10;;;;;;5034753;28;20105;-59
2022/11/02 04:21:38;;;;;;;1.52;0.40;;;21.10;42.50;;;;;;5039536;28;20114;-60
2022/11/02 04:26:51;;;;;;;0.35;0.20;;;21.30;42.60;;;;;;5034498;28;20608;-58
2022/11/02 04:29:18;;;;;;;2.30;0.20;;;21.40;41.60;;;;;;5031693;28;20021;-59
2022/11/02 04:31:45;;;;;;;0.10;0.10;;;21.50;42.10;;;;;;5030119;28;20021;-59
2022/11/02 04:34:12;;;;;;;1.98;0.20;;;21.50;43.70;;;;;;5030913;28;20060;-59
2022/11/02 04:36:40;;;;;;;8.68;1.77;;;21.30;43.50;;;;;;5034620;28;20576;-57
2022/11/02 04:39:07;;;;;;;13.13;1.17;;;21.10;43.00;;;;;;5029720;28;20025;-59
2022/11/02 04:41:43;;;;;;;8.40;1.23;;;20.60;42.80;;;;;;5028935;28;20048;-59
2022/11/02 04:44:13;;;;;;;1.27;0.40;;;20.30;41.30;;;;;;5039083;28;20025;-55
2022/11/02 04:46:42;;;;;;;3.75;0.30;;;20.20;41.50;;;;;;5033509;28;20026;-56
2022/11/02 04:49:10;;;;;;;9.27;0.77;;;20.00;42.60;;;;;;5034269;28;20017;-58
2022/11/02 04:51:41;;;;;;;8.32;0.70;;;19.90;42.60;;;;;;5035668;28;20061;-60
2022/11/02 04:54:08;;;;;;;8.27;0.40;;;19.90;43.10;;;;;;5038829;28;20079;-59
2022/11/02 04:56:35;;;;;;;4.53;0.35;;;20.00;44.80;;;;;;5039119;28;20040;-56
2022/11/02 04:59:02;;;;;;;3.90;0.40;;;19.60;44.20;;;;;;5028093;28;20028;-59
2022/11/02 05:01:30;;;;;;;1.70;0.20;;;19.40;45.30;;;;;;5032989;28;20033;-59
2022/11/02 05:03:57;;;;;;;7.63;0.40;;;19.70;46.50;;;;;;5031377;28;20077;-57
2022/11/02 05:06:25;;;;;;;8.23;0.90;;;19.80;45.00;;;;;;5037907;28;20512;-58
2022/11/02 05:08:52;;;;;;;5.40;0.60;;;19.70;45.90;;;;;;5032404;28;20097;-58
2022/11/02 05:11:20;;;;;;;1.20;0.30;;;19.60;46.00;;;;;;5035943;28;20048;-61
2022/11/02 05:13:47;;;;;;;22.02;1.75;;;19.60;46.80;;;;;;5035328;28;20119;-59
2022/11/02 05:16:16;;;;;;;10.63;0.85;;;19.50;44.70;;;;;;5035365;28;20029;-59
2022/11/02 05:18:43;;;;;;;6.63;0.68;;;19.40;45.00;;;;;;5038434;28;20034;-59
2022/11/02 05:21:12;;;;;;;8.07;0.50;;;19.30;43.10;;;;;;5032018;28;20127;-57
2022/11/02 05:23:39;;;;;;;9.80;0.60;;;18.90;43.70;;;;;;5038602;28;20677;-59
2022/11/02 05:26:10;;;;;;;10.15;0.65;;;18.70;44.20;;;;;;5027568;28;20030;-57
2022/11/02 05:28:38;;;;;;;4.07;0.25;;;18.80;45.00;;;;;;5040718;28;20029;-58
2022/11/02 05:31:05;;;;;;;1.23;0.38;;;18.90;43.90;;;;;;5029196;28;20021;-59
2022/11/02 05:33:33;;;;;;;1.25;0.40;;;19.00;45.20;;;;;;5027272;28;20113;-57
2022/11/02 05:36:01;;;;;;;3.92;0.47;;;18.90;43.80;;;;;;5027899;28;20068;-57
2022/11/02 05:38:29;;;;;;;11.15;0.80;;;18.90;43.10;;;;;;5024891;28;20029;-57
2022/11/02 05:40:58;;;;;;;2.45;0.25;;;18.80;44.20;;;;;;5028532;28;20087;-59
2022/11/02 05:43:26;;;;;;;8.85;0.70;;;18.80;42.90;;;;;;5025855;28;20101;-57
2022/11/02 05:46:01;;;;;;;6.03;0.90;;;18.70;43.90;;;;;;5025720;28;20038;-56
2022/11/02 05:48:31;;;;;;;2.15;0.30;;;18.70;44.50;;;;;;5026535;28;20029;-55
2022/11/02 05:51:03;;;;;;;4.30;0.50;;;18.70;45.10;;;;;;5022812;28;20489;-58
2022/11/02 05:53:32;;;;;;;6.32;0.75;;;18.70;43.80;;;;;;5028831;28;20069;-57
2022/11/02 05:56:07;;;;;;;7.50;0.70;;;18.50;44.00;;;;;;5025845;28;20036;-56
2022/11/02 05:58:34;;;;;;;2.35;0.30;;;18.50;45.50;;;;;;5027499;28;20021;-57
2022/11/02 06:01:03;;;;;;;5.78;0.40;;;18.50;44.40;;;;;;5021924;28;20056;-53
2022/11/02 06:03:32;;;;;;;5.57;0.57;;;18.40;45.50;;;;;;5024369;28;20026;-57
2022/11/02 06:06:02;;;;;;;6.50;0.50;;;18.20;45.60;;;;;;5025866;28;20029;-53
2022/11/02 06:08:32;;;;;;;7.10;1.88;;;18.00;45.40;;;;;;5025578;28;20037;-54
2022/11/02 06:11:07;;;;;;;3.15;0.30;;;17.90;46.80;;;;;;5028321;28;20020;-55
2022/11/02 06:13:35;;;;;;;6.32;0.88;;;18.00;46.80;;;;;;5028584;28;20028;-56
2022/11/02 06:16:08;;;;;;;11.35;0.77;;;18.20;47.20;;;;;;5027236;28;20037;-57
2022/11/02 06:18:40;;;;;;;4.93;0.40;;;18.40;47.70;;;;;;5025811;28;20478;-54
2022/11/02 06:21:07;;;;;;;5.35;0.60;;;18.40;46.70;;;;;;5027618;28;20509;-57
2022/11/02 06:23:35;;;;;;;1.48;0.45;;;18.20;46.40;;;;;;5029174;28;20021;-55
2022/11/02 06:26:03;;;;;;;1.98;0.47;;;17.80;46.50;;;;;;5026347;28;20091;-53
2022/11/02 06:28:31;;;;;;;1.30;0.20;;;17.50;46.30;;;;;;5026453;28;20414;-51
2022/11/02 06:30:59;;;;;;;4.65;0.30;;;17.40;46.60;;;;;;5031504;28;20350;-51
2022/11/02 06:33:28;;;;;;;3.05;0.30;;;17.40;46.60;;;;;;5039460;28;20148;-54
2022/11/02 06:35:56;;;;;;;5.88;0.30;;;17.60;46.30;;;;;;5029042;28;20036;-53
2022/11/02 06:38:24;;;;;;;3.20;0.60;;;17.70;46.90;;;;;;5026274;28;20051;-54
2022/11/02 06:40:55;;;;;;;3.47;0.55;;;17.70;47.00;;;;;;5025955;28;20033;-57
2022/11/02 06:43:23;;;;;;;1.63;0.45;;;17.50;45.70;;;;;;5033049;28;20013;-55
2022/11/02 06:45:53;;;;;;;3.15;0.50;;;17.50;46.10;;;;;;5036132;28;20029;-60
2022/11/02 06:48:20;;;;;;;7.40;0.60;;;17.70;45.90;;;;;;5027338;28;20022;-56
2022/11/02 06:50:48;;;;;;;6.35;0.47;;;17.90;45.60;;;;;;5029162;28;20409;-54
2022/11/02 06:53:17;;;;;;;7.88;0.50;;;17.90;45.60;;;;;;5033409;28;20562;-55
2022/11/02 06:55:44;;;;;;;5.45;1.05;;;17.90;46.60;;;;;;5038731;28;20032;-55
2022/11/02 06:58:12;;;;;;;4.82;0.77;;;17.80;46.90;;;;;;5030429;28;20103;-56
2022/11/02 07:00:39;;;;;;;3.63;0.50;;;17.70;47.80;;;;;;5031932;28;20124;-55
2022/11/02 07:03:09;;;;;;;1.45;0.38;;;17.70;48.30;;;;;;5034209;28;20496;-56
2022/11/02 07:05:37;;;;;;;11.80;0.80;;;17.60;49.30;;;;;;5038945;28;20452;-53
2022/11/02 07:08:05;;;;;;;5.30;0.40;;;17.40;48.90;;;;;;5038950;28;20072;-56
2022/11/02 07:10:34;;;;;;;4.90;0.77;;;17.30;49.00;;;;;;5028850;28;20029;-57
2022/11/02 07:13:02;;;;;;;6.22;0.75;;;17.00;49.80;;;;;;5030166;28;20031;-56
2022/11/02 07:15:29;;;;;;;5.30;0.30;;;16.90;50.50;;;;;;5027929;28;20017;-60
2022/11/02 07:17:56;;;;;;;9.82;0.73;;;16.70;50.50;;;;;;5029886;28;20449;-53
2022/11/02 07:20:24;;;;;;;6.40;0.50;;;16.60;51.10;;;;;;5038088;28;20029;-51
2022/11/02 07:22:56;;;;;;;0.57;0.20;;;16.40;51.10;;;;;;5030373;28;20488;-53
2022/11/02 07:25:26;;;;;;;5.55;0.95;;;16.20;51.10;;;;;;5026112;28;20091;-53
2022/11/02 07:27:53;;;;;;;8.45;0.70;;;16.10;51.70;;;;;;5028305;28;20029;-54
2022/11/02 07:30:21;;;;;;;13.13;1.58;;;16.00;52.00;;;;;;5028177;28;20032;-53
2022/11/02 07:32:48;;;;;;;2.50;0.40;;;15.90;53.10;;;;;;5029007;28;20052;-53
2022/11/02 07:35:16;;;;;;;2.08;0.40;;;15.80;52.60;;;;;;5033733;28;20036;-53
2022/11/02 07:37:44;;;;;;;1.55;0.32;;;15.60;52.80;;;;;;5047065;28;20029;-56
2022/11/02 07:40:15;;;;;;;1.10;0.35;;;15.60;53.20;;;;;;5038622;28;20546;-55
2022/11/02 07:42:46;;;;;;;1.95;0.30;;;15.40;53.20;;;;;;5046429;28;20025;-50
2022/11/02 07:45:13;;;;;;;1.25;0.65;;;15.40;53.50;;;;;;5036157;28;20693;-55
2022/11/02 07:47:45;;;;;;;4.07;0.80;;;15.30;54.20;;;;;;5042685;28;20041;-53
2022/11/02 07:50:14;;;;;;;2.30;1.10;;;15.20;53.50;;;;;;5030364;28;20025;-55
2022/11/02 07:52:53;;;;;;;11.07;1.00;;;15.10;54.00;;;;;;5025980;28;20854;-52
2022/11/02 07:55:22;;;;;;;9.38;0.80;;;15.00;52.40;;;;;;5033190;28;20090;-52
2022/11/02 07:58:08;;;;;;;2.22;0.52;;;14.90;52.70;;;;;;5041840;28;20017;-63
2022/11/02 08:00:39;;;;;;;5.97;0.68;;;14.80;53.10;;;;;;5030240;28;20042;-55
2022/11/02 08:03:08;;;;;;;2.45;0.50;;;14.70;53.00;;;;;;5022861;28;20098;-54
2022/11/02 08:05:38;;;;;;;3.97;1.08;;;14.70;53.50;;;;;;5035460;28;20035;-52
2022/11/02 08:08:17;;;;;;;2.80;0.38;;;14.60;54.30;;;;;;5027973;28;20037;-55
2022/11/02 08:10:46;;;;;;;5.63;0.60;;;14.50;54.70;;;;;;5031619;28;20029;-52
2022/11/02 08:13:16;;;;;;;8.27;0.88;;;14.30;55.00;;;;;;5029342;28;20647;-54
2022/11/02 08:15:44;;;;;;;2.95;1.20;;;14.20;55.20;;;;;;5026816;28;20029;-55
2022/11/02 08:18:23;;;;;;;13.00;1.45;;;14.10;55.70;;;;;;5027152;28;20474;-52
2022/11/02 08:20:50;;;;;;;6.60;1.15;;;14.00;56.20;;;;;;5045099;28;20464;-60
2022/11/02 08:23:19;;;;;;;10.25;1.17;;;13.90;56.50;;;;;;5028920;28;20021;-59
2022/11/02 08:25:48;;;;;;;5.95;0.82;;;13.80;57.60;;;;;;5029076;28;20029;-58
2022/11/02 08:28:22;;;;;;;1.02;0.40;;;13.60;57.60;;;;;;5029297;28;20025;-57
2022/11/02 08:30:49;;;;;;;0.55;0.30;;;13.50;57.90;;;;;;5032062;28;20067;-56
2022/11/02 08:33:18;;;;;;;1.00;0.30;;;13.50;57.60;;;;;;5041853;28;20056;-57
2022/11/02 08:35:47;;;;;;;1.38;0.52;;;13.50;57.30;;;;;;5033074;28;20083;-56
2022/11/02 08:38:15;;;;;;;1.13;0.40;;;13.40;57.60;;;;;;5037750;28;20037;-57
2022/11/02 08:40:43;;;;;;;0.82;0.20;;;13.30;58.70;;;;;;5031845;28;20041;-57
2022/11/02 08:43:13;;;;;;;0.65;0.30;;;13.40;57.50;;;;;;5034118;28;20086;-57
2022/11/02 08:45:43;;;;;;;1.35;0.30;;;13.40;58.00;;;;;;5021406;28;20017;-56
2022/11/02 08:48:11;;;;;;;1.05;0.40;;;13.30;58.00;;;;;;5031690;28;20033;-56
2022/11/02 08:50:38;;;;;;;1.17;0.30;;;13.30;58.30;;;;;;5030150;28;20030;-56
2022/11/02 08:53:06;;;;;;;0.82;0.20;;;13.20;59.00;;;;;;5031295;28;20046;-57
2022/11/02 08:55:34;;;;;;;0.80;0.30;;;13.10;59.50;;;;;;5034006;28;20030;-57
2022/11/02 08:58:01;;;;;;;2.28;1.65;;;13.10;58.70;;;;;;5027270;28;20084;-56
2022/11/02 09:00:38;;;;;;;1.20;0.32;;;13.10;59.10;;;;;;5025065;28;20049;-56
2022/11/02 09:03:07;;;;;;;1.85;0.40;;;13.00;59.30;;;;;;5015448;28;20070;-55
2022/11/02 09:05:44;;;;;;;2.60;0.40;;;13.00;59.30;;;;;;5039444;28;20049;-55
2022/11/02 09:08:19;;;;;;;0.60;0.40;;;13.10;58.50;;;;;;5037253;28;20110;-55
2022/11/02 09:10:50;;;;;;;0.82;0.30;;;13.10;58.30;;;;;;5039963;28;20021;-51
2022/11/02 09:13:23;;;;;;;2.60;0.43;;;13.10;58.60;;;;;;5040539;28;20746;-55
2022/11/02 09:15:56;;;;;;;1.27;0.40;;;13.10;58.70;;;;;;5027748;28;20045;-56
2022/11/02 09:18:24;;;;;;;0.70;0.30;;;13.00;59.60;;;;;;5030872;28;20029;-57
2022/11/02 09:20:51;;;;;;;0.22;0.20;;;13.00;59.20;;;;;;5022073;28;20099;-57
2022/11/02 09:23:20;;;;;;;2.25;0.38;;;12.90;59.80;;;;;;5026075;28;20545;-57
2022/11/02 09:25:49;;;;;;;0.60;0.40;;;12.80;60.30;;;;;;5028054;28;20482;-63
2022/11/02 09:28:16;;;;;;;1.00;0.50;;;12.70;61.20;;;;;;5031125;28;20509;-55
2022/11/02 09:30:44;;;;;;;1.38;0.52;;;12.60;61.30;;;;;;5020445;28;20028;-56
2022/11/02 09:33:12;;;;;;;1.05;0.50;;;12.60;61.20;;;;;;5029560;28;20555;-55
2022/11/02 09:35:43;;;;;;;3.53;0.30;;;12.50;62.00;;;;;;5025973;28;20022;-57
2022/11/02 09:38:10;;;;;;;0.73;0.20;;;12.40;62.70;;;;;;5023184;28;20033;-57
2022/11/02 09:40:42;;;;;;;5.47;0.80;;;12.20;63.10;;;;;;5021598;28;20123;-56
2022/11/02 09:43:32;;;;;;;1.23;0.50;;;12.00;63.90;;;;;;5037498;28;20022;-57
2022/11/02 09:46:39;;;;;;;1.70;0.40;;;11.90;64.60;;;;;;5022842;28;20029;-55
2022/11/02 09:49:19;;;;;;;0.70;0.50;;;11.80;65.40;;;;;;5030441;28;20117;-58
2022/11/02 09:51:55;;;;;;;1.95;0.47;;;11.70;66.00;;;;;;5024200;28;20437;-55
2022/11/02 09:54:47;;;;;;;2.22;0.63;;;11.50;66.70;;;;;;5024345;28;20114;-58
2022/11/02 09:57:21;;;;;;;1.60;0.65;;;11.40;67.80;;;;;;5021147;28;20140;-55
2022/11/02 09:59:49;;;;;;;0.95;0.30;;;11.30;69.00;;;;;;5025345;28;20026;-56
2022/11/02 10:02:20;;;;;;;2.50;0.70;;;11.20;69.00;;;;;;5038903;28;20060;-58
2022/11/02 10:05:05;;;;;;;3.80;0.68;;;11.10;70.20;;;;;;5029995;28;20025;-55
2022/11/02 10:08:20;;;;;;;1.65;0.77;;;11.10;70.10;;;;;;5030925;28;20033;-57
2022/11/02 10:11:22;;;;;;;0.68;0.43;;;11.10;71.30;;;;;;5024521;28;20087;-55
2022/11/02 10:14:13;;;;;;;0.70;0.40;;;11.00;71.50;;;;;;5022975;28;20036;-59
2022/11/02 10:16:45;;;;;;;5.30;0.52;;;10.90;72.40;;;;;;5029184;28;20037;-57
2022/11/02 10:19:18;;;;;;;1.83;0.50;;;10.90;74.00;;;;;;5029720;28;20025;-58
2022/11/02 10:21:49;;;;;;;2.03;0.68;;;10.90;73.30;;;;;;5024938;28;20041;-57
2022/11/02 10:24:39;;;;;;;2.25;0.60;;;10.80;73.60;;;;;;5024394;28;20021;-54
2022/11/02 10:27:19;;;;;;;1.15;0.30;;;10.80;74.00;;;;;;5024118;28;20090;-54
2022/11/02 10:30:06;;;;;;;1.35;0.40;;;10.80;74.90;;;;;;5026102;28;20079;-57
2022/11/02 10:32:37;;;;;;;1.75;0.35;;;10.90;74.90;;;;;;5030608;28;20544;-57
2022/11/02 10:35:11;;;;;;;1.40;0.30;;;10.90;73.40;;;;;;5017925;28;20090;-57
2022/11/02 10:38:13;;;;;;;1.08;0.50;;;10.90;74.10;;;;;;5024917;28;20513;-54
2022/11/02 10:40:58;;;;;;;1.65;0.82;;;10.90;74.30;;;;;;5035109;28;20722;-57
2022/11/02 10:43:44;;;;;;;1.70;0.50;;;10.90;74.30;;;;;;5030127;28;20364;-52
2022/11/02 10:46:23;;;;;;;1.05;0.50;;;11.00;74.00;;;;;;5023965;28;20051;-57
2022/11/02 10:49:03;;;;;;;1.63;0.65;;;10.90;73.40;;;;;;5023756;28;20375;-59
2022/11/02 10:51:30;;;;;;;3.30;0.80;;;10.80;74.60;;;;;;5033049;28;20045;-56
2022/11/02 10:53:58;;;;;;;2.95;0.70;;;10.70;74.70;;;;;;5032018;28;20493;-57
2022/11/02 10:56:33;;;;;;;1.58;0.60;;;10.70;75.60;;;;;;5025320;28;20030;-57
2022/11/02 10:59:03;;;;;;;1.88;0.40;;;10.60;75.70;;;;;;5024516;28;20447;-60
2022/11/02 11:01:32;;;;;;;2.13;0.50;;;10.50;76.00;;;;;;5032997;28;20028;-53
2022/11/02 11:04:05;;;;;;;1.05;0.40;;;10.40;77.00;;;;;;5027611;28;20438;-58
2022/11/02 11:06:35;;;;;;;2.80;1.65;;;10.40;77.10;;;;;;5026130;28;20524;-58
2022/11/02 11:09:37;;;;;;;1.90;0.55;;;10.30;77.20;;;;;;5026529;28;20044;-57
2022/11/02 11:12:30;;;;;;;1.60;0.50;;;10.20;78.60;;;;;;5036119;28;20037;-56
2022/11/02 11:15:01;;;;;;;4.35;1.10;;;10.20;79.30;;;;;;5033949;28;20033;-57
2022/11/02 11:17:34;;;;;;;1.65;0.43;;;10.20;79.90;;;;;;5031875;28;20025;-57
2022/11/02 11:20:07;;;;;;;1.17;0.40;;;10.10;79.10;;;;;;5032664;28;20502;-56
2022/11/02 11:22:39;;;;;;;0.70;0.40;;;10.10;79.30;;;;;;5035557;28;20560;-55
2022/11/02 11:25:12;;;;;;;1.17;0.63;;;10.20;78.80;;;;;;5034783;28;20092;-55
2022/11/02 11:27:53;;;;;;;2.92;0.80;;;10.10;78.80;;;;;;5038071;28;20025;-53
2022/11/02 11:30:31;;;;;;;1.92;0.60;;;10.00;79.60;;;;;;5033422;28;20077;-64
2022/11/02 11:33:00;;;;;;;1.77;0.80;;;10.00;80.50;;;;;;5035242;28;20473;-58
2022/11/02 11:35:37;;;;;;;4.65;0.60;;;10.00;80.90;;;;;;5035456;28;20030;-56
2022/11/02 11:38:13;;;;;;;4.07;0.73;;;10.10;80.30;;;;;;5033097;28;20036;-53
2022/11/02 11:40:46;;;;;;;2.38;0.50;;;10.00;81.00;;;;;;5031560;28;20510;-54
2022/11/02 11:43:16;;;;;;;1.83;0.60;;;10.10;79.50;;;;;;5046522;28;20043;-57
2022/11/02 11:46:06;;;;;;;5.60;0.70;;;10.00;80.10;;;;;;5031332;28;20562;-55
2022/11/02 11:48:48;;;;;;;0.95;0.40;;;9.90;81.40;;;;;;5037846;28;20105;-56
2022/11/02 11:51:37;;;;;;;2.15;0.60;;;9.80;81.30;;;;;;5030170;28;20036;-59
2022/11/02 11:54:22;;;;;;;2.03;0.50;;;9.70;82.00;;;;;;5035793;28;20545;-55
2022/11/02 11:56:51;;;;;;;;;;;9.60;83.00;;;;;;5043493;28;20045;-55
2022/11/02 11:59:43;;;;;;;2.10;0.70;;;9.40;83.20;;;;;;5045827;28;19926;-57
2022/11/02 12:02:23;;;;;;;2.63;0.90;;;9.30;84.20;;;;;;5022306;28;20150;-55
2022/11/02 12:04:57;;;;;;;5.15;0.80;;;9.20;86.00;;;;;;5035291;28;20509;-56
2022/11/02 12:07:40;;;;;;;1.83;0.80;;;9.10;87.60;;;;;;5039319;28;20428;-56
2022/11/02 12:10:23;;;;;;;1.45;0.50;;;9.00;87.70;;;;;;5029299;28;20025;-55
2022/11/02 12:13:06;;;;;;;3.38;0.70;;;8.90;87.10;;;;;;5036143;28;20060;-60
2022/11/02 12:16:00;;;;;;;2.08;0.95;;;8.80;87.60;;;;;;5041505;28;20386;-54
2022/11/02 12:18:58;;;;;;;1.40;0.60;;;8.70;88.20;;;;;;5029356;28;20033;-57
2022/11/02 12:21:52;;;;;;;2.67;0.55;;;8.70;89.50;;;;;;5029151;28;20073;-55
2022/11/02 12:24:29;;;;;;;1.75;0.60;;;8.70;89.60;;;;;;5028957;28;20033;-56
2022/11/02 12:27:31;;;;;;;1.63;0.60;;;8.60;89.30;;;;;;5029818;28;20509;-54
2022/11/02 12:30:16;;;;;;;3.25;0.80;;;8.60;89.70;;;;;;5030840;28;20099;-58
2022/11/02 12:33:14;;;;;;;2.85;0.55;;;8.40;90.40;;;;;;5030459;28;20068;-55
2022/11/02 12:35:50;;;;;;;2.67;0.50;;;8.40;90.70;;;;;;5028154;28;20025;-55
2022/11/02 12:38:41;;;;;;;3.03;0.40;;;8.20;90.90;;;;;;5035054;28;20428;-51
2022/11/02 12:41:12;;;;;;;1.02;0.50;;;8.20;91.40;;;;;;5017784;28;20508;-55
2022/11/02 12:43:45;;;;;;;1.90;0.70;;;8.10;92.20;;;;;;5041241;28;20071;-59
2022/11/02 12:46:52;;;;;;;3.40;0.60;;;8.10;92.00;;;;;;5026867;28;20034;-55
2022/11/02 12:49:48;;;;;;;3.05;0.65;;;8.00;92.50;;;;;;5017731;28;20465;-57
2022/11/02 12:52:21;;;;;;;3.25;0.68;;;8.00;92.50;;;;;;5040857;28;20099;-58
2022/11/02 12:54:57;;;;;;;2.58;0.50;;;7.90;92.70;;;;;;5032248;28;20076;-56
2022/11/02 12:57:28;;;;;;;4.75;1.02;;;7.80;93.00;;;;;;5034539;28;20440;-56
2022/11/02 13:00:04;;;;;;;3.22;1.13;;;7.80;92.80;;;;;;5037949;28;20036;-53
2022/11/02 13:03:13;;;;;;;1.90;0.60;;;7.80;93.00;;;;;;5028879;28;20030;-56
2022/11/02 13:05:49;;;;;;;6.72;0.80;;;7.70;93.60;;;;;;5023333;28;20153;-53
2022/11/02 13:08:38;;;;;;;2.38;0.80;;;7.70;93.80;;;;;;5025867;28;20120;-51
2022/11/02 13:11:22;;;;;;;4.43;0.90;;;7.70;93.80;;;;;;5022691;28;20084;-54
2022/11/02 13:13:56;;;;;;;1.85;0.55;;;7.60;94.20;;;;;;5030458;28;21060;-54
2022/11/02 13:17:17;;;;;;;1.20;0.60;;;7.60;95.00;;;;;;5031945;28;20048;-56
2022/11/02 13:19:54;;;;;;;3.25;0.75;;;7.60;94.70;;;;;;5033581;28;20050;-54
2022/11/02 13:22:33;;;;;;;2.95;1.00;;;7.60;95.60;;;;;;5032485;28;20136;-56
2022/11/02 13:25:33;;;;;;;3.45;1.08;;;7.50;95.10;;;;;;5031403;28;20033;-57
2022/11/02 13:28:10;;;;;;;2.95;0.65;;;7.50;95.30;;;;;;5027467;28;20087;-55
2022/11/02 13:30:42;;;;;;;6.45;2.00;;;7.40;94.80;;;;;;5025975;28;20516;-57
2022/11/02 13:33:12;;;;;;;5.07;0.80;;;7.40;94.90;;;;;;5032430;28;20370;-57
2022/11/02 13:35:40;;;;;;;3.10;0.40;;;7.40;95.00;;;;;;5027580;28;20079;-53